createdAt,value
2023-04-07T00:01:57.775Z,13.73
2023-04-07T00:04:26.625Z,13.82
2023-04-07T00:06:55.651Z,13.76
2023-04-07T00:09:23.143Z,13.73
2023-04-07T00:11:50.417Z,13.69
2023-04-07T00:14:17.710Z,13.73
2023-04-07T00:16:45.241Z,13.63
2023-04-07T00:19:12.389Z,13.58
2023-04-07T00:21:39.763Z,13.37
2023-04-07T00:24:08.946Z,13.39
2023-04-07T00:26:36.037Z,13.41
2023-04-07T00:29:03.165Z,13.32
2023-04-07T00:31:32.537Z,13.44
2023-04-07T00:33:59.856Z,13.29
2023-04-07T00:36:26.986Z,13.24
2023-04-07T00:38:53.951Z,13.22
2023-04-07T00:44:14.414Z,13.08
2023-04-07T00:46:42.497Z,13.03
2023-04-07T00:49:11.214Z,13.12
2023-04-07T00:51:38.538Z,13.24
2023-04-07T00:54:06.495Z,13.25
2023-04-07T00:56:35.123Z,13.32
2023-04-07T00:59:05.106Z,13.29
2023-04-07T01:01:42.828Z,13.24
2023-04-07T01:04:18.862Z,13.14
2023-04-07T01:06:51.988Z,13.04
2023-04-07T01:09:34.861Z,13.05
2023-04-07T01:12:16.634Z,13.03
2023-04-07T01:14:51.672Z,13.07
2023-04-07T01:17:43.391Z,13.08
2023-04-07T01:20:21.052Z,13.18
2023-04-07T01:22:56.057Z,13.28
2023-04-07T01:26:28.050Z,13.25
2023-04-07T01:29:34.502Z,13.14
2023-04-07T01:32:11.906Z,13.11
2023-04-07T01:34:44.753Z,13.00
2023-04-07T01:37:14.567Z,13.04
2023-04-07T01:39:46.376Z,13.01
2023-04-07T01:42:21.035Z,12.90
2023-04-07T01:44:53.812Z,12.74
2023-04-07T01:47:21.206Z,12.83
2023-04-07T01:49:57.332Z,12.90
2023-04-07T01:52:28.650Z,12.81
2023-04-07T01:54:56.230Z,12.84
2023-04-07T01:57:23.458Z,12.81
2023-04-07T01:59:56.730Z,12.74
2023-04-07T02:02:30.551Z,12.67
2023-04-07T02:05:03.649Z,12.67
2023-04-07T02:07:42.659Z,12.61
2023-04-07T02:10:15.515Z,12.64
2023-04-07T02:12:47.158Z,12.66
2023-04-07T02:15:31.186Z,12.74
2023-04-07T02:18:02.057Z,12.76
2023-04-07T02:20:31.260Z,12.77
2023-04-07T02:22:58.726Z,12.83
2023-04-07T02:25:28.819Z,12.84
2023-04-07T02:27:59.069Z,12.81
2023-04-07T02:30:29.294Z,12.73
2023-04-07T02:32:57.462Z,12.73
2023-04-07T02:35:25.325Z,12.66
2023-04-07T02:37:54.095Z,12.63
2023-04-07T02:40:21.340Z,12.67
2023-04-07T02:42:48.486Z,12.57
2023-04-07T02:45:15.788Z,12.54
2023-04-07T02:47:44.320Z,12.54
2023-04-07T02:50:11.884Z,12.43
2023-04-07T02:52:39.384Z,12.46
2023-04-07T02:55:11.929Z,12.46
2023-04-07T02:57:39.491Z,12.47
2023-04-07T03:00:13.100Z,12.42
2023-04-07T03:02:57.755Z,12.32
2023-04-07T03:05:26.081Z,12.19
2023-04-07T03:07:53.187Z,12.30
2023-04-07T03:10:20.661Z,12.25
2023-04-07T03:12:47.856Z,12.33
2023-04-07T03:15:16.576Z,12.36
2023-04-07T03:17:47.352Z,12.32
2023-04-07T03:20:18.595Z,12.33
2023-04-07T03:22:45.894Z,12.43
2023-04-07T03:25:22.031Z,12.47
2023-04-07T03:27:52.072Z,12.53
2023-04-07T03:30:20.768Z,12.53
2023-04-07T03:32:48.850Z,12.52
2023-04-07T03:35:17.395Z,12.54
2023-04-07T03:37:45.233Z,12.54
2023-04-07T03:40:17.554Z,12.52
2023-04-07T03:42:46.983Z,12.50
2023-04-07T03:45:16.110Z,12.52
2023-04-07T03:47:48.300Z,12.49
2023-04-07T03:50:19.139Z,12.52
2023-04-07T03:52:58.690Z,12.47
2023-04-07T03:55:30.571Z,12.50
2023-04-07T03:58:04.293Z,12.52
2023-04-07T04:00:34.444Z,12.50
2023-04-07T04:03:08.727Z,12.45
2023-04-07T04:05:41.897Z,12.45
2023-04-07T04:08:13.394Z,12.43
2023-04-07T04:10:41.458Z,12.40
2023-04-07T04:13:09.752Z,12.29
2023-04-07T04:15:37.235Z,12.22
2023-04-07T04:18:08.224Z,12.22
2023-04-07T04:20:35.464Z,12.16
2023-04-07T04:23:05.319Z,12.11
2023-04-07T04:25:33.360Z,12.09
2023-04-07T04:28:03.913Z,12.06
2023-04-07T04:30:31.095Z,12.04
2023-04-07T04:33:03.594Z,12.06
2023-04-07T04:35:57.361Z,12.06
2023-04-07T04:38:27.766Z,12.08
2023-04-07T04:41:02.360Z,12.09
2023-04-07T04:43:31.564Z,12.09
2023-04-07T04:45:59.505Z,12.12
2023-04-07T04:48:29.013Z,12.12
2023-04-07T04:50:56.320Z,12.18
2023-04-07T04:53:23.378Z,12.21
2023-04-07T04:55:57.542Z,12.23
2023-04-07T04:58:35.378Z,12.21
2023-04-07T05:01:02.644Z,12.22
2023-04-07T05:03:37.288Z,12.28
2023-04-07T05:06:11.896Z,12.32
2023-04-07T05:08:41.204Z,12.33
2023-04-07T05:11:09.805Z,12.35
2023-04-07T05:13:37.626Z,12.40
2023-04-07T05:16:06.276Z,12.42
2023-04-07T05:18:34.702Z,12.45
2023-04-07T05:21:02.408Z,12.52
2023-04-07T05:23:30.423Z,12.54
2023-04-07T05:25:57.904Z,12.57
2023-04-07T05:28:26.131Z,12.61
2023-04-07T05:30:56.089Z,12.61
2023-04-07T05:33:27.853Z,12.64
2023-04-07T05:35:56.935Z,12.68
2023-04-07T05:38:23.974Z,12.77
2023-04-07T05:40:53.743Z,12.81
2023-04-07T05:43:26.953Z,12.84
2023-04-07T05:45:54.980Z,12.80
2023-04-07T05:48:23.523Z,12.76
2023-04-07T05:50:50.608Z,12.79
2023-04-07T05:53:19.205Z,12.81
2023-04-07T05:55:47.138Z,12.83
2023-04-07T05:58:23.702Z,12.86
2023-04-07T06:00:55.585Z,12.94
2023-04-07T06:03:22.655Z,12.94
2023-04-07T06:06:16.049Z,12.93
2023-04-07T06:08:43.278Z,12.95
2023-04-07T06:11:10.437Z,12.97
2023-04-07T06:13:37.496Z,13.01
2023-04-07T06:16:06.801Z,13.04
2023-04-07T06:18:34.152Z,13.07
2023-04-07T06:21:01.931Z,13.12
2023-04-07T06:23:29.380Z,13.14
2023-04-07T06:25:56.339Z,13.10
2023-04-07T06:28:23.721Z,12.95
2023-04-07T06:30:51.081Z,13.00
2023-04-07T06:33:19.510Z,13.08
2023-04-07T06:35:46.804Z,13.19
2023-04-07T06:38:14.169Z,13.31
2023-04-07T06:40:41.289Z,13.39
2023-04-07T06:43:08.337Z,13.46
2023-04-07T06:45:48.826Z,13.48
2023-04-07T06:48:16.044Z,13.61
2023-04-07T06:50:49.490Z,13.73
2023-04-07T06:53:16.514Z,13.82
2023-04-07T06:55:43.447Z,13.86
2023-04-07T06:58:10.677Z,13.91
2023-04-07T07:00:37.637Z,13.91
2023-04-07T07:03:05.000Z,14.02
2023-04-07T07:05:32.597Z,14.17
2023-04-07T07:08:01.085Z,14.27
2023-04-07T07:10:28.623Z,14.23
2023-04-07T07:12:55.723Z,14.29
2023-04-07T07:15:22.942Z,14.57
2023-04-07T07:17:49.960Z,14.82
2023-04-07T07:20:18.584Z,15.12
2023-04-07T07:22:45.657Z,15.36
2023-04-07T07:25:14.093Z,15.54
2023-04-07T07:27:41.362Z,15.73
2023-04-07T07:30:09.567Z,16.00
2023-04-07T07:32:36.572Z,16.25
2023-04-07T07:35:03.804Z,16.48
2023-04-07T07:37:30.771Z,16.75
2023-04-07T07:39:57.777Z,17.12
2023-04-07T07:42:26.298Z,17.40
2023-04-07T07:44:53.295Z,17.78
2023-04-07T07:47:20.735Z,18.21
2023-04-07T07:49:47.747Z,18.39
2023-04-07T07:52:14.947Z,18.66
2023-04-07T07:54:42.013Z,18.88
2023-04-07T07:57:09.161Z,18.88
2023-04-07T07:59:37.724Z,18.91
2023-04-07T08:02:05.042Z,19.06
2023-04-07T08:04:32.229Z,19.07
2023-04-07T08:06:59.370Z,19.06
2023-04-07T08:09:26.255Z,19.25
2023-04-07T08:11:53.382Z,19.47
2023-04-07T08:14:20.657Z,19.76
2023-04-07T08:16:48.940Z,20.06
2023-04-07T08:19:16.055Z,19.99
2023-04-07T08:21:43.108Z,20.21
2023-04-07T08:24:10.336Z,20.29
2023-04-07T08:26:37.366Z,20.30
2023-04-07T08:29:31.202Z,20.19
2023-04-07T08:31:59.923Z,20.08
2023-04-07T08:34:26.969Z,20.09
2023-04-07T08:36:53.970Z,20.40
2023-04-07T08:39:21.051Z,20.63
2023-04-07T08:41:50.622Z,20.74
2023-04-07T08:44:21.339Z,20.78
2023-04-07T08:46:50.780Z,20.64
2023-04-07T08:49:22.656Z,20.75
2023-04-07T08:51:53.962Z,20.75
2023-04-07T08:54:21.518Z,20.92
2023-04-07T08:56:48.713Z,21.02
2023-04-07T08:59:16.556Z,21.13
2023-04-07T09:01:44.001Z,21.29
2023-04-07T09:04:14.829Z,21.49
2023-04-07T09:06:44.182Z,21.84
2023-04-07T09:09:11.417Z,22.05
2023-04-07T09:11:40.386Z,22.34
2023-04-07T09:14:07.888Z,22.54
2023-04-07T09:16:35.934Z,22.68
2023-04-07T09:19:02.960Z,22.77
2023-04-07T09:21:51.980Z,22.89
2023-04-07T09:24:24.188Z,22.76
2023-04-07T09:26:51.347Z,22.83
2023-04-07T09:29:21.360Z,22.72
2023-04-07T09:31:50.714Z,22.75
2023-04-07T09:34:26.537Z,22.72
2023-04-07T09:36:55.150Z,22.69
2023-04-07T09:39:22.280Z,22.79
2023-04-07T09:41:50.098Z,22.99
2023-04-07T09:44:17.246Z,22.88
2023-04-07T09:46:52.389Z,23.00
2023-04-07T09:49:19.688Z,23.20
2023-04-07T09:51:56.371Z,23.46
2023-04-07T09:54:35.622Z,23.64
2023-04-07T09:57:04.580Z,23.87
2023-04-07T09:59:33.309Z,24.12
2023-04-07T10:02:00.943Z,24.51
2023-04-07T10:04:28.955Z,24.93
2023-04-07T10:06:59.464Z,25.20
2023-04-07T10:09:29.091Z,25.28
2023-04-07T10:11:58.495Z,25.41
2023-04-07T10:14:28.260Z,25.44
2023-04-07T10:16:55.904Z,25.37
2023-04-07T10:19:24.235Z,25.41
2023-04-07T10:21:53.930Z,25.33
2023-04-07T10:24:43.089Z,25.48
2023-04-07T10:27:19.606Z,25.65
2023-04-07T10:29:50.458Z,25.61
2023-04-07T10:32:17.575Z,25.55
2023-04-07T10:34:59.577Z,25.84
2023-04-07T10:37:28.262Z,26.12
2023-04-07T10:40:30.756Z,26.35
2023-04-07T10:42:58.980Z,26.60
2023-04-07T10:46:03.001Z,26.94
2023-04-07T10:48:30.224Z,27.08
2023-04-07T10:51:15.687Z,27.34
2023-04-07T10:54:19.644Z,27.04
2023-04-07T10:57:12.168Z,26.90
2023-04-07T10:59:42.624Z,26.90
2023-04-07T11:02:35.479Z,26.86
2023-04-07T11:05:03.437Z,26.86
2023-04-07T11:07:53.083Z,27.08
2023-04-07T11:10:20.737Z,27.16
2023-04-07T11:13:07.913Z,27.08
2023-04-07T11:15:40.317Z,27.05
2023-04-07T11:18:17.998Z,27.21
2023-04-07T11:20:48.345Z,27.39
2023-04-07T11:23:17.322Z,27.41
2023-04-07T11:25:48.699Z,27.32
2023-04-07T11:28:18.870Z,27.22
2023-04-07T11:30:49.654Z,27.27
2023-04-07T11:33:22.429Z,27.28
2023-04-07T11:35:52.278Z,27.11
2023-04-07T11:38:19.753Z,26.87
2023-04-07T11:40:47.449Z,26.59
2023-04-07T11:43:24.302Z,26.40
2023-04-07T11:46:07.305Z,26.29
2023-04-07T11:48:36.923Z,26.20
2023-04-07T11:51:04.453Z,26.13
2023-04-07T11:53:33.989Z,25.89
2023-04-07T11:56:06.984Z,25.64
2023-04-07T11:58:36.013Z,25.38
2023-04-07T12:01:05.831Z,25.30
2023-04-07T12:03:35.226Z,25.64
2023-04-07T12:06:02.924Z,26.25
2023-04-07T12:08:44.028Z,26.70
2023-04-07T12:11:12.694Z,26.73
2023-04-07T12:13:40.900Z,26.83
2023-04-07T12:16:08.566Z,26.94
2023-04-07T12:18:35.616Z,27.01
2023-04-07T12:21:02.846Z,27.10
2023-04-07T12:23:29.909Z,27.18
2023-04-07T12:25:56.728Z,27.31
2023-04-07T12:28:23.819Z,27.28
2023-04-07T12:30:52.130Z,26.81
2023-04-07T12:33:19.271Z,26.41
2023-04-07T12:35:46.319Z,26.32
2023-04-07T12:38:13.748Z,26.49
2023-04-07T12:40:40.752Z,26.76
2023-04-07T12:43:07.721Z,26.71
2023-04-07T12:45:35.127Z,26.64
2023-04-07T12:48:03.717Z,26.76
2023-04-07T12:50:30.841Z,26.80
2023-04-07T12:52:58.419Z,26.63
2023-04-07T12:55:25.808Z,26.28
2023-04-07T12:57:52.825Z,26.28
2023-04-07T13:00:20.153Z,26.44
2023-04-07T13:02:47.700Z,26.37
2023-04-07T13:05:16.263Z,26.16
2023-04-07T13:07:43.309Z,25.89
2023-04-07T13:10:11.060Z,25.61
2023-04-07T13:12:38.020Z,25.38
2023-04-07T13:15:06.647Z,24.91
2023-04-07T13:17:33.793Z,24.46
2023-04-07T13:20:00.721Z,24.09
2023-04-07T13:22:29.665Z,24.12
2023-04-07T13:24:56.558Z,24.52
2023-04-07T13:27:23.663Z,24.84
2023-04-07T13:29:51.435Z,25.00
2023-04-07T13:32:18.545Z,24.93
2023-04-07T13:34:45.539Z,25.10
2023-04-07T13:37:12.399Z,25.23
2023-04-07T13:39:40.823Z,25.42
2023-04-07T13:42:08.420Z,25.64
2023-04-07T13:44:35.902Z,25.78
2023-04-07T13:47:03.461Z,25.84
2023-04-07T13:49:31.041Z,25.79
2023-04-07T13:51:58.001Z,25.61
2023-04-07T13:54:24.846Z,25.37
2023-04-07T13:56:53.342Z,24.97
2023-04-07T13:59:20.397Z,24.56
2023-04-07T14:01:47.795Z,23.97
2023-04-07T14:04:14.993Z,23.24
2023-04-07T14:06:42.820Z,22.69
2023-04-07T14:09:09.813Z,22.18
2023-04-07T14:11:36.873Z,21.62
2023-04-07T14:14:05.354Z,21.03
2023-04-07T14:16:32.573Z,20.47
2023-04-07T14:18:59.432Z,20.06
2023-04-07T14:21:26.548Z,19.68
2023-04-07T14:23:54.140Z,19.34
2023-04-07T14:26:21.652Z,18.97
2023-04-07T14:28:49.012Z,18.78
2023-04-07T14:34:13.004Z,18.64
2023-04-07T14:36:39.917Z,18.61
2023-04-07T14:39:06.810Z,18.67
2023-04-07T14:41:33.802Z,18.68
2023-04-07T14:44:01.048Z,18.73
2023-04-07T14:46:29.550Z,18.70
2023-04-07T14:48:56.825Z,18.76
2023-04-07T14:51:23.654Z,18.66
2023-04-07T14:53:50.945Z,18.60
2023-04-07T14:56:17.964Z,18.60
2023-04-07T14:58:44.902Z,18.53
2023-04-07T15:01:11.951Z,18.45
2023-04-07T15:03:40.317Z,18.16
2023-04-07T15:06:08.291Z,18.06
2023-04-07T15:08:35.503Z,18.06
2023-04-07T15:11:04.552Z,18.01
2023-04-07T15:13:31.857Z,17.78
2023-04-07T15:16:07.644Z,17.60
2023-04-07T15:18:34.870Z,17.43
2023-04-07T15:21:03.297Z,17.33
2023-04-07T15:23:30.303Z,17.31
2023-04-07T15:25:57.189Z,17.33
2023-04-07T15:28:24.972Z,17.28
2023-04-07T15:30:51.946Z,17.31
2023-04-07T15:33:19.536Z,17.26
2023-04-07T15:35:46.893Z,17.20
2023-04-07T15:38:17.800Z,17.28
2023-04-07T15:40:45.035Z,17.36
2023-04-07T15:43:12.002Z,17.41
2023-04-07T15:45:44.313Z,17.43
2023-04-07T15:48:12.281Z,17.37
2023-04-07T15:50:39.696Z,17.38
2023-04-07T15:53:07.492Z,17.27
2023-04-07T15:55:37.085Z,17.16
2023-04-07T15:58:04.753Z,17.02
2023-04-07T16:00:34.628Z,16.97
2023-04-07T16:03:02.304Z,16.93
2023-04-07T16:05:29.794Z,16.79
2023-04-07T16:07:56.927Z,16.72
2023-04-07T16:10:24.350Z,16.72
2023-04-07T16:12:52.614Z,16.68
2023-04-07T16:15:32.323Z,16.63
2023-04-07T16:18:06.506Z,16.44
2023-04-07T16:20:33.828Z,16.28
2023-04-07T16:23:01.010Z,16.25
2023-04-07T16:25:28.380Z,16.24
2023-04-07T16:27:56.762Z,16.25
2023-04-07T16:30:23.746Z,16.25
2023-04-07T16:32:51.333Z,16.22
2023-04-07T16:35:18.330Z,16.14
2023-04-07T16:37:45.234Z,15.93
2023-04-07T16:40:13.567Z,15.87
2023-04-07T16:42:40.492Z,15.83
2023-04-07T16:45:10.607Z,15.64
2023-04-07T16:47:38.523Z,15.61
2023-04-07T16:50:06.717Z,15.49
2023-04-07T16:52:34.633Z,15.38
2023-04-07T16:55:01.652Z,15.32
2023-04-07T16:57:28.695Z,15.16
2023-04-07T16:59:56.215Z,15.02
2023-04-07T17:02:24.623Z,15.01
2023-04-07T17:04:54.261Z,15.08
2023-04-07T17:07:21.337Z,15.08
2023-04-07T17:09:48.750Z,15.13
2023-04-07T17:12:15.843Z,15.25
2023-04-07T17:14:42.971Z,15.23
2023-04-07T17:17:10.266Z,15.06
2023-04-07T17:19:38.864Z,14.92
2023-04-07T17:22:05.822Z,14.92
2023-04-07T17:24:32.658Z,14.87
2023-04-07T17:27:00.144Z,14.82
2023-04-07T17:29:27.676Z,14.82
2023-04-07T17:31:55.153Z,14.79
2023-04-07T17:34:22.402Z,14.85
2023-04-07T17:36:51.138Z,14.87
2023-04-07T17:39:18.129Z,14.78
2023-04-07T17:41:45.307Z,14.60
2023-04-07T17:44:12.467Z,14.42
2023-04-07T17:46:39.426Z,14.34
2023-04-07T17:49:06.376Z,14.30
2023-04-07T17:51:33.293Z,14.33
2023-04-07T17:54:01.630Z,14.41
2023-04-07T17:56:28.969Z,14.50
2023-04-07T17:58:55.804Z,14.57
2023-04-07T18:01:23.189Z,14.42
2023-04-07T18:03:50.327Z,14.56
2023-04-07T18:06:18.262Z,14.60
2023-04-07T18:08:45.875Z,14.65
2023-04-07T18:11:14.490Z,14.71
2023-04-07T18:13:41.360Z,14.68
2023-04-07T18:16:08.287Z,14.74
2023-04-07T18:18:37.555Z,14.74
2023-04-07T18:21:30.117Z,14.74
2023-04-07T18:23:57.187Z,14.75
2023-04-07T18:26:25.577Z,14.70
2023-04-07T18:28:52.498Z,14.60
2023-04-07T18:31:19.578Z,14.58
2023-04-07T18:33:46.864Z,14.61
2023-04-07T18:36:14.003Z,14.71
2023-04-07T18:38:40.880Z,14.77
2023-04-07T18:41:08.046Z,14.87
2023-04-07T18:43:36.549Z,14.77
2023-04-07T18:46:03.478Z,14.81
2023-04-07T18:48:30.335Z,14.71
2023-04-07T18:50:57.388Z,14.72
2023-04-07T18:53:26.484Z,14.78
2023-04-07T18:55:53.390Z,14.85
2023-04-07T18:58:20.370Z,14.89
2023-04-07T19:00:48.740Z,14.91
2023-04-07T19:06:07.598Z,14.85
2023-04-07T19:08:35.757Z,14.81
2023-04-07T19:11:02.746Z,14.72
2023-04-07T19:13:29.700Z,14.77
2023-04-07T19:15:58.275Z,14.81
2023-04-07T19:18:25.657Z,14.82
2023-04-07T19:20:52.468Z,14.74
2023-04-07T19:23:19.730Z,14.68
2023-04-07T19:25:46.765Z,14.70
2023-04-07T19:28:14.076Z,14.72
2023-04-07T19:30:41.126Z,14.77
2023-04-07T19:33:09.685Z,14.87
2023-04-07T19:35:37.575Z,14.92
2023-04-07T19:38:04.872Z,14.89
2023-04-07T19:40:31.855Z,14.85
2023-04-07T19:42:58.812Z,14.82
2023-04-07T19:45:26.305Z,14.78
2023-04-07T19:47:53.428Z,14.77
2023-04-07T19:50:48.260Z,14.67
2023-04-07T19:53:15.896Z,14.65
2023-04-07T19:55:43.000Z,14.72
2023-04-07T19:58:10.167Z,14.71
2023-04-07T20:00:37.361Z,14.74
2023-04-07T20:03:05.037Z,14.79
2023-04-07T20:05:33.358Z,14.85
2023-04-07T20:08:01.554Z,14.92
2023-04-07T20:10:28.537Z,14.84
2023-04-07T20:12:55.674Z,14.85
2023-04-07T20:15:22.854Z,14.68
2023-04-07T20:17:49.972Z,14.67
2023-04-07T20:20:17.632Z,14.60
2023-04-07T20:22:44.971Z,14.54
2023-04-07T20:25:13.444Z,14.61
2023-04-07T20:27:40.253Z,14.61
2023-04-07T20:30:08.392Z,14.64
2023-04-07T20:32:35.457Z,14.61
2023-04-07T20:35:28.110Z,14.44
2023-04-07T20:37:54.993Z,14.34
2023-04-07T20:40:23.476Z,14.42
2023-04-07T20:42:50.330Z,14.33
2023-04-07T20:45:17.527Z,14.45
2023-04-07T20:47:44.525Z,14.51
2023-04-07T20:50:11.444Z,14.63
2023-04-07T20:52:38.318Z,14.75
2023-04-07T20:55:06.942Z,14.89
2023-04-07T20:57:35.375Z,14.91
2023-04-07T21:00:02.809Z,14.93
2023-04-07T21:02:30.021Z,14.88
2023-04-07T21:04:57.125Z,14.87
2023-04-07T21:07:24.314Z,14.84
2023-04-07T21:09:51.296Z,14.84
2023-04-07T21:12:18.272Z,14.85
2023-04-07T21:14:46.549Z,14.89
2023-04-07T21:17:13.451Z,14.85
2023-04-07T21:19:40.718Z,14.75
2023-04-07T21:22:07.675Z,14.77
2023-04-07T21:24:34.681Z,14.77
2023-04-07T21:27:01.518Z,14.75
2023-04-07T21:29:30.679Z,14.72
2023-04-07T21:31:58.859Z,14.67
2023-04-07T21:34:26.035Z,14.67
2023-04-07T21:36:52.880Z,14.74
2023-04-07T21:39:19.703Z,14.81
2023-04-07T21:41:46.898Z,14.81
2023-04-07T21:44:13.941Z,14.77
2023-04-07T21:46:41.294Z,14.77
2023-04-07T21:49:09.845Z,14.79
2023-04-07T21:51:36.705Z,14.79
2023-04-07T21:54:04.594Z,14.81
2023-04-07T21:56:31.743Z,14.82
2023-04-07T21:58:59.253Z,14.79
2023-04-07T22:01:26.567Z,14.79
2023-04-07T22:03:53.526Z,14.87
2023-04-07T22:06:21.948Z,14.92
2023-04-07T22:11:21.738Z,14.82
2023-04-07T22:13:48.558Z,14.81
2023-04-07T22:16:15.477Z,14.77
2023-04-07T22:18:42.334Z,14.72
2023-04-07T22:21:09.525Z,14.68
2023-04-07T22:23:38.028Z,14.70
2023-04-07T22:26:05.540Z,14.74
2023-04-07T22:28:32.466Z,14.70
2023-04-07T22:30:59.556Z,14.75
2023-04-07T22:33:26.519Z,14.78
2023-04-07T22:35:53.586Z,14.85
2023-04-07T22:38:22.394Z,14.88
2023-04-07T22:40:50.723Z,14.91
2023-04-07T22:43:17.799Z,14.96
2023-04-07T22:45:44.875Z,14.91
2023-04-07T22:48:12.236Z,14.88
2023-04-07T22:50:39.322Z,14.89
2023-04-07T22:53:06.131Z,14.91
2023-04-07T22:55:33.283Z,14.92
2023-04-07T22:58:01.586Z,14.95
2023-04-07T23:00:28.571Z,14.91
2023-04-07T23:02:58.038Z,14.85
2023-04-07T23:05:25.692Z,14.87
2023-04-07T23:07:52.540Z,14.82
2023-04-07T23:10:19.628Z,14.89
2023-04-07T23:12:46.739Z,14.93
2023-04-07T23:15:15.212Z,15.01
2023-04-07T23:17:42.235Z,14.91
2023-04-07T23:20:10.571Z,14.88
2023-04-07T23:22:37.656Z,14.85
2023-04-07T23:25:07.467Z,14.89
2023-04-07T23:27:34.659Z,14.98
2023-04-07T23:30:01.840Z,15.01
2023-04-07T23:32:30.095Z,15.03
2023-04-07T23:34:57.292Z,15.11
2023-04-07T23:37:24.335Z,14.99
2023-04-07T23:39:51.638Z,15.03
2023-04-07T23:42:18.866Z,14.96
2023-04-07T23:44:45.813Z,14.75
2023-04-07T23:47:12.654Z,14.75
2023-04-07T23:49:40.846Z,14.67
2023-04-07T23:52:07.996Z,14.65
2023-04-07T23:54:35.489Z,14.72
2023-04-07T23:57:02.794Z,14.79
2023-04-07T23:59:29.720Z,14.75
